Time;durP1;ratioP1;P1;durP2;ratioP2;P2;SDS_P1;SDS_P2;PMS_P1;PMS_P2;Temp;Humidity;BMP_temperature;BMP_pressure;BME280_temperature;BME280_humidity;BME280_pressure;Samples;Min_cycle;Max_cycle;Signal;HPM_P1;HPM_P2
2021/03/07 00:02:11;;;;;;;;;;;19.50;52.30;;;;;;5073979;28;1556;-64
2021/03/07 00:04:37;;;;;;;;;;;19.50;52.30;;;;;;5073636;28;1636;-65
2021/03/07 00:07:02;;;;;;;;;;;19.50;52.30;;;;;;5073459;28;1560;-64
2021/03/07 00:09:27;;;;;;;;;;;19.50;52.30;;;;;;5072098;28;1658;-64
2021/03/07 00:11:53;;;;;;;;;;;19.50;52.40;;;;;;5072256;28;1630;-65
2021/03/07 00:14:18;;;;;;;;;;;19.50;52.90;;;;;;5073469;28;1346;-64
2021/03/07 00:16:44;;;;;;;;;;;19.50;52.40;;;;;;5073341;28;1117;-64
2021/03/07 00:19:09;;;;;;;;;;;19.50;52.40;;;;;;5072710;28;1975;-65
2021/03/07 00:21:35;;;;;;;;;;;19.50;52.40;;;;;;5073217;28;1563;-63
2021/03/07 00:24:00;;;;;;;;;;;19.50;52.40;;;;;;5073110;28;1703;-64
2021/03/07 00:26:25;;;;;;;;;;;19.40;52.40;;;;;;5073448;28;1578;-65
2021/03/07 00:28:51;;;;;;;;;;;19.50;52.40;;;;;;5072988;28;1710;-67
2021/03/07 00:31:16;;;;;;;;;;;19.50;52.50;;;;;;5072626;28;1326;-66
2021/03/07 00:33:42;;;;;;;;;;;19.50;52.50;;;;;;5072942;28;1593;-65
2021/03/07 00:36:07;;;;;;;;;;;19.50;52.50;;;;;;5073013;28;1360;-66
2021/03/07 00:38:33;;;;;;;;;;;19.50;52.50;;;;;;5072417;28;1898;-66
2021/03/07 00:40:58;;;;;;;;;;;19.50;52.50;;;;;;5073032;28;1577;-65
2021/03/07 00:43:23;;;;;;;;;;;19.50;52.50;;;;;;5072913;28;1337;-67
2021/03/07 00:45:49;;;;;;;;;;;19.50;52.50;;;;;;5072699;28;1596;-66
2021/03/07 00:48:14;;;;;;;;;;;19.40;52.50;;;;;;5071241;28;1254;-65
2021/03/07 00:50:40;;;;;;;;;;;19.50;52.50;;;;;;5072880;28;1659;-67
2021/03/07 00:53:05;;;;;;;;;;;19.50;52.50;;;;;;5072659;28;1542;-66
2021/03/07 00:55:31;;;;;;;;;;;19.40;52.50;;;;;;5072542;28;1389;-66
2021/03/07 00:57:56;;;;;;;;;;;19.40;52.50;;;;;;5072301;28;1894;-67
2021/03/07 01:00:23;;;;;;;;;;;19.40;52.50;;;;;;5072596;28;1381;-67
2021/03/07 01:02:48;;;;;;;;;;;19.40;52.50;;;;;;5072480;28;1621;-66
2021/03/07 01:05:13;;;;;;;;;;;19.40;52.60;;;;;;5072736;28;1563;-66
2021/03/07 01:07:39;;;;;;;;;;;19.40;52.60;;;;;;5070693;28;1651;-66
2021/03/07 01:10:08;;;;;;;;;;;19.40;52.60;;;;;;5072438;28;1344;-64
2021/03/07 01:12:34;;;;;;;;;;;19.40;52.60;;;;;;5072270;28;1556;-67
2021/03/07 01:14:59;;;;;;;;;;;19.40;53.20;;;;;;5072293;28;1658;-66
2021/03/07 01:17:25;;;;;;;;;;;19.40;52.60;;;;;;5070535;28;1352;-67
2021/03/07 01:19:50;;;;;;;;;;;19.40;52.60;;;;;;5072270;28;1898;-67
2021/03/07 01:22:16;;;;;;;;;;;19.40;52.60;;;;;;5072360;28;1788;-66
2021/03/07 01:24:41;;;;;;;;;;;19.40;52.60;;;;;;5071972;28;1537;-66
2021/03/07 01:27:06;;;;;;;;;;;19.40;52.60;;;;;;5071262;28;1427;-68
2021/03/07 01:29:32;;;;;;;;;;;19.40;52.60;;;;;;5071596;28;1455;-66
2021/03/07 01:31:57;;;;;;;;;;;19.40;52.60;;;;;;5070592;28;1686;-68
2021/03/07 01:34:23;;;;;;;;;;;19.40;52.60;;;;;;5071574;28;1513;-64
2021/03/07 01:36:48;;;;;;;;;;;19.40;52.70;;;;;;5070694;28;1614;-66
2021/03/07 01:39:13;;;;;;;;;;;19.30;52.60;;;;;;5069759;28;1957;-65
2021/03/07 01:41:39;;;;;;;;;;;19.30;52.60;;;;;;5072086;28;1295;-65
2021/03/07 01:44:04;;;;;;;;;;;19.30;52.60;;;;;;5071632;28;1378;-67
2021/03/07 01:46:30;;;;;;;;;;;19.30;52.60;;;;;;5072540;28;1286;-65
2021/03/07 01:48:55;;;;;;;;;;;19.30;52.60;;;;;;5072577;28;1168;-65
2021/03/07 01:51:22;;;;;;;;;;;19.30;52.70;;;;;;5072474;28;1235;-65
2021/03/07 01:53:47;;;;;;;;;;;19.30;52.70;;;;;;5072246;28;1278;-66
2021/03/07 01:56:12;;;;;;;;;;;19.30;52.70;;;;;;5072332;28;1436;-67
2021/03/07 01:58:38;;;;;;;;;;;19.30;52.70;;;;;;5071871;28;1953;-67
2021/03/07 02:01:04;;;;;;;;;;;19.30;52.70;;;;;;5071148;28;1489;-67
2021/03/07 02:03:30;;;;;;;;;;;19.30;52.70;;;;;;5072287;28;1223;-67
2021/03/07 02:05:55;;;;;;;;;;;19.30;52.70;;;;;;5071032;28;1308;-68
2021/03/07 02:08:20;;;;;;;;;;;19.30;52.70;;;;;;5071726;28;1211;-68
2021/03/07 02:10:50;;;;;;;;;;;19.30;52.70;;;;;;5071114;28;1148;-67
2021/03/07 02:13:17;;;;;;;;;;;19.30;52.70;;;;;;5071121;28;1278;-67
2021/03/07 02:15:43;;;;;;;;;;;19.30;52.80;;;;;;5070897;28;1358;-66
2021/03/07 02:18:08;;;;;;;;;;;19.30;52.80;;;;;;5070792;28;1967;-65
2021/03/07 02:20:34;;;;;;;;;;;19.30;52.80;;;;;;5072128;28;1216;-67
2021/03/07 02:23:12;;;;;;;;;;;19.30;53.40;;;;;;5054153;28;1390;-65
2021/03/07 02:25:38;;;;;;;;;;;19.30;52.80;;;;;;5070892;28;1420;-65
2021/03/07 02:28:04;;;;;;;;;;;19.30;52.80;;;;;;5071922;28;1129;-64
2021/03/07 02:30:30;;;;;;;;;;;19.30;52.80;;;;;;5072174;28;1329;-64
2021/03/07 02:33:15;;;;;;;;;;;19.30;52.80;;;;;;5072075;28;1219;-65
2021/03/07 02:35:43;;;;;;;;;;;19.30;52.80;;;;;;5091377;22;3586;-70
2021/03/07 02:38:08;;;;;;;;;;;19.30;52.80;;;;;;5072487;28;1993;-70
2021/03/07 02:40:34;;;;;;;;;;;19.30;52.80;;;;;;5072414;28;1621;-70
2021/03/07 02:42:59;;;;;;;;;;;19.30;52.80;;;;;;5063809;28;1517;-69
2021/03/07 02:45:24;;;;;;;;;;;19.20;52.80;;;;;;5067381;28;1618;-70
2021/03/07 02:47:51;;;;;;;;;;;19.20;52.80;;;;;;5054791;28;1713;-70
2021/03/07 02:50:18;;;;;;;;;;;19.20;52.80;;;;;;5072007;28;1602;-70
2021/03/07 02:52:46;;;;;;;;;;;19.20;52.80;;;;;;5071860;28;1705;-69
2021/03/07 02:55:12;;;;;;;;;;;19.20;52.80;;;;;;5072081;28;1370;-70
2021/03/07 02:57:37;;;;;;;;;;;19.20;52.80;;;;;;5055926;28;1962;-69
2021/03/07 03:00:04;;;;;;;;;;;19.20;52.80;;;;;;5056274;28;1726;-70
2021/03/07 03:02:29;;;;;;;;;;;19.20;52.80;;;;;;5048758;28;1630;-69
2021/03/07 03:04:55;;;;;;;;;;;19.20;52.80;;;;;;5054961;28;1583;-71
2021/03/07 03:07:20;;;;;;;;;;;19.20;52.90;;;;;;5054753;28;1704;-70
2021/03/07 03:09:46;;;;;;;;;;;19.20;52.90;;;;;;5055055;28;1392;-69
2021/03/07 03:12:11;;;;;;;;;;;19.20;52.90;;;;;;5054879;28;1742;-70
2021/03/07 03:14:37;;;;;;;;;;;19.20;52.90;;;;;;5054725;28;1364;-69
2021/03/07 03:17:02;;;;;;;;;;;19.20;52.90;;;;;;5054313;28;1673;-69
2021/03/07 03:19:28;;;;;;;;;;;19.20;52.90;;;;;;5054674;28;1949;-70
2021/03/07 03:21:54;;;;;;;;;;;19.20;52.90;;;;;;5054672;28;1636;-70
2021/03/07 03:24:19;;;;;;;;;;;19.20;52.90;;;;;;5054652;28;1685;-71
2021/03/07 03:26:44;;;;;;;;;;;19.20;52.90;;;;;;5054433;28;1684;-69
2021/03/07 03:29:10;;;;;;;;;;;19.20;52.90;;;;;;5054222;28;1381;-70
2021/03/07 03:31:35;;;;;;;;;;;19.20;52.90;;;;;;5055593;28;1428;-70
2021/03/07 03:34:02;;;;;;;;;;;19.20;52.90;;;;;;5054624;28;1377;-68
2021/03/07 03:36:27;;;;;;;;;;;19.20;53.00;;;;;;5055534;28;1675;-70
2021/03/07 03:38:54;;;;;;;;;;;19.20;53.00;;;;;;5053973;28;1906;-69
2021/03/07 03:41:19;;;;;;;;;;;19.20;53.00;;;;;;5057992;28;1630;-70
2021/03/07 03:43:45;;;;;;;;;;;19.20;52.90;;;;;;5054155;28;1716;-70
2021/03/07 03:46:11;;;;;;;;;;;19.20;52.80;;;;;;5054058;28;1739;-71
2021/03/07 03:48:43;;;;;;;;;;;19.20;52.80;;;;;;5053932;28;1392;-70
2021/03/07 03:51:09;;;;;;;;;;;19.20;52.80;;;;;;5055363;28;1659;-69
2021/03/07 03:53:34;;;;;;;;;;;19.20;52.80;;;;;;5054147;28;1779;-70
2021/03/07 03:56:00;;;;;;;;;;;19.20;52.70;;;;;;5052881;28;1589;-69
2021/03/07 03:58:26;;;;;;;;;;;19.20;52.70;;;;;;5053554;28;1926;-70
2021/03/07 04:00:52;;;;;;;;;;;19.30;52.70;;;;;;5053930;28;1578;-69
2021/03/07 04:03:17;;;;;;;;;;;19.30;52.70;;;;;;5053960;28;1496;-70
2021/03/07 04:05:43;;;;;;;;;;;19.30;52.60;;;;;;5053812;28;1601;-70
2021/03/07 04:08:09;;;;;;;;;;;19.30;52.60;;;;;;5053671;28;1620;-71
2021/03/07 04:10:34;;;;;;;;;;;19.30;52.50;;;;;;5054991;28;1620;-69
2021/03/07 04:13:00;;;;;;;;;;;19.30;52.50;;;;;;5037006;28;1586;-70
2021/03/07 04:15:27;;;;;;;;;;;19.40;52.50;;;;;;5053406;28;1725;-70
2021/03/07 04:17:53;;;;;;;;;;;19.40;52.50;;;;;;5053295;28;1951;-68
2021/03/07 04:20:18;;;;;;;;;;;19.50;52.30;;;;;;5053534;28;1657;-70
2021/03/07 04:22:43;;;;;;;;;;;19.60;52.20;;;;;;5053609;28;1374;-71
2021/03/07 04:25:09;;;;;;;;;;;19.70;52.00;;;;;;5054624;28;1437;-70
2021/03/07 04:27:34;;;;;;;;;;;19.80;51.90;;;;;;5054468;28;1203;-71
2021/03/07 04:30:00;;;;;;;;;;;19.90;51.70;;;;;;5053307;28;1614;-70
2021/03/07 04:32:26;;;;;;;;;;;20.00;51.50;;;;;;5053515;28;1700;-70
2021/03/07 04:34:51;;;;;;;;;;;20.10;51.30;;;;;;5054153;28;1274;-71
2021/03/07 04:37:17;;;;;;;;;;;20.10;51.00;;;;;;5069778;28;1396;-71
2021/03/07 04:39:42;;;;;;;;;;;20.20;51.40;;;;;;5068966;28;1890;-69
2021/03/07 04:42:07;;;;;;;;;;;20.30;50.70;;;;;;5041326;28;1627;-69
2021/03/07 04:44:33;;;;;;;;;;;20.40;50.50;;;;;;5052903;28;1497;-69
2021/03/07 04:46:58;;;;;;;;;;;20.40;50.40;;;;;;5054264;28;1599;-69
2021/03/07 04:49:24;;;;;;;;;;;20.50;50.30;;;;;;5052778;28;1725;-69
2021/03/07 04:51:49;;;;;;;;;;;20.50;50.10;;;;;;5053975;28;1385;-68
2021/03/07 04:54:15;;;;;;;;;;;20.60;50.10;;;;;;5036346;28;1385;-70
2021/03/07 04:56:40;;;;;;;;;;;20.60;50.00;;;;;;5053953;28;1392;-70
2021/03/07 04:59:06;;;;;;;;;;;20.70;50.00;;;;;;5052267;28;1890;-68
2021/03/07 05:01:31;;;;;;;;;;;20.70;49.80;;;;;;5052812;28;1695;-69
2021/03/07 05:03:56;;;;;;;;;;;20.80;49.80;;;;;;5053893;28;1196;-70
2021/03/07 05:06:25;;;;;;;;;;;20.80;49.70;;;;;;5053524;28;1604;-68
2021/03/07 05:08:51;;;;;;;;;;;20.80;49.60;;;;;;5052168;28;1463;-69
2021/03/07 05:11:17;;;;;;;;;;;20.90;49.70;;;;;;5052597;28;1455;-68
2021/03/07 05:13:42;;;;;;;;;;;20.90;49.50;;;;;;5052474;28;1609;-70
2021/03/07 05:16:08;;;;;;;;;;;20.90;49.50;;;;;;5053603;28;1634;-71
2021/03/07 05:18:33;;;;;;;;;;;21.00;49.50;;;;;;5053066;28;1951;-71
2021/03/07 05:20:58;;;;;;;;;;;21.00;49.40;;;;;;5053658;28;1004;-69
2021/03/07 05:23:24;;;;;;;;;;;21.00;49.40;;;;;;5052347;28;1618;-71
2021/03/07 05:25:49;;;;;;;;;;;21.00;49.30;;;;;;5053610;28;1215;-71
2021/03/07 05:28:15;;;;;;;;;;;21.10;49.30;;;;;;5053107;28;1585;-68
2021/03/07 05:30:40;;;;;;;;;;;21.10;49.30;;;;;;5053501;28;1338;-69
2021/03/07 05:33:06;;;;;;;;;;;21.10;49.30;;;;;;5053212;28;1453;-68
2021/03/07 05:35:31;;;;;;;;;;;21.10;49.20;;;;;;5053305;28;1860;-69
2021/03/07 05:37:57;;;;;;;;;;;21.20;49.20;;;;;;5068430;28;1945;-68
2021/03/07 05:40:22;;;;;;;;;;;21.20;49.20;;;;;;5062494;28;1429;-70
2021/03/07 05:42:47;;;;;;;;;;;21.20;49.10;;;;;;5061890;28;1671;-69
2021/03/07 05:45:13;;;;;;;;;;;21.20;49.10;;;;;;5051825;28;1749;-71
2021/03/07 05:47:39;;;;;;;;;;;21.20;49.10;;;;;;5052805;28;1390;-70
2021/03/07 05:50:05;;;;;;;;;;;21.20;49.10;;;;;;5053305;28;1691;-70
2021/03/07 05:52:31;;;;;;;;;;;21.20;49.10;;;;;;5053060;28;1571;-70
2021/03/07 05:54:56;;;;;;;;;;;21.30;49.10;;;;;;5068393;28;1667;-70
2021/03/07 05:57:22;;;;;;;;;;;21.30;49.10;;;;;;5068119;28;1430;-71
2021/03/07 05:59:48;;;;;;;;;;;21.30;49.00;;;;;;5053005;28;1886;-71
2021/03/07 06:02:14;;;;;;;;;;;21.30;49.00;;;;;;5044286;28;1667;-71
2021/03/07 06:04:39;;;;;;;;;;;21.30;49.00;;;;;;5052422;28;1663;-70
2021/03/07 06:07:05;;;;;;;;;;;21.30;49.00;;;;;;5052794;28;1270;-68
2021/03/07 06:09:30;;;;;;;;;;;21.30;48.90;;;;;;5052817;28;1674;-68
2021/03/07 06:11:56;;;;;;;;;;;21.40;49.00;;;;;;5051622;28;1567;-68
2021/03/07 06:14:26;;;;;;;;;;;21.40;49.00;;;;;;5052989;28;1622;-69
2021/03/07 06:16:57;;;;;;;;;;;21.40;48.90;;;;;;5051574;28;1393;-69
2021/03/07 06:19:23;;;;;;;;;;;21.40;48.90;;;;;;5056172;28;1902;-69
2021/03/07 06:21:48;;;;;;;;;;;21.40;48.90;;;;;;5057015;28;1107;-70
2021/03/07 06:24:31;;;;;;;;;;;21.40;48.90;;;;;;5056265;28;1468;-69
2021/03/07 06:27:03;;;;;;;;;;;21.40;48.90;;;;;;5055770;28;1376;-68
2021/03/07 06:29:29;;;;;;;;;;;21.40;48.90;;;;;;5055597;28;1294;-70
2021/03/07 06:31:54;;;;;;;;;;;21.40;48.90;;;;;;5057007;28;1436;-69
2021/03/07 06:34:20;;;;;;;;;;;21.40;48.90;;;;;;5056720;28;1541;-69
2021/03/07 06:36:45;;;;;;;;;;;21.40;48.90;;;;;;5055327;28;1735;-69
2021/03/07 06:39:11;;;;;;;;;;;21.40;49.00;;;;;;5054704;28;1906;-69
2021/03/07 06:41:36;;;;;;;;;;;21.40;49.00;;;;;;5043940;28;1433;-69
2021/03/07 06:44:05;;;;;;;;;;;21.40;49.10;;;;;;5055306;28;1590;-70
2021/03/07 06:46:31;;;;;;;;;;;21.40;49.10;;;;;;5055342;28;1733;-69
2021/03/07 06:48:57;;;;;;;;;;;21.30;49.10;;;;;;5055067;28;1384;-69
2021/03/07 06:51:29;;;;;;;;;;;21.30;49.20;;;;;;5056426;28;1254;-68
2021/03/07 06:53:55;;;;;;;;;;;21.30;49.20;;;;;;5055090;28;1685;-69
2021/03/07 06:56:39;;;;;;;;;;;21.30;49.20;;;;;;5055116;28;1680;-68
2021/03/07 06:59:11;;;;;;;;;;;21.30;49.30;;;;;;5055881;28;1961;-68
2021/03/07 07:01:40;;;;;;;;;;;21.30;49.40;;;;;;5056245;28;1356;-68
2021/03/07 07:04:06;;;;;;;;;;;21.20;49.40;;;;;;5056024;28;1683;-69
2021/03/07 07:06:32;;;;;;;;;;;21.20;49.50;;;;;;5056221;28;1586;-68
2021/03/07 07:08:58;;;;;;;;;;;21.20;49.50;;;;;;5054731;28;1606;-68
2021/03/07 07:11:24;;;;;;;;;;;21.20;49.50;;;;;;5056284;28;1599;-67
2021/03/07 07:13:52;;;;;;;;;;;21.20;49.60;;;;;;5056048;28;1687;-67
2021/03/07 07:16:17;;;;;;;;;;;21.10;49.60;;;;;;5054844;28;1393;-69
2021/03/07 07:18:43;;;;;;;;;;;21.10;49.70;;;;;;5054249;28;1944;-68
2021/03/07 07:21:13;;;;;;;;;;;21.10;49.80;;;;;;5054629;28;1833;-69
2021/03/07 07:23:38;;;;;;;;;;;21.10;49.80;;;;;;5054628;28;1663;-67
2021/03/07 07:26:03;;;;;;;;;;;21.00;49.80;;;;;;5037862;28;1686;-68
2021/03/07 07:28:29;;;;;;;;;;;21.00;49.90;;;;;;5054548;28;1684;-68
2021/03/07 07:31:00;;;;;;;;;;;21.00;49.90;;;;;;5055751;28;1383;-68
2021/03/07 07:33:34;;;;;;;;;;;21.00;50.00;;;;;;5054286;28;1673;-68
2021/03/07 07:36:00;;;;;;;;;;;21.00;50.60;;;;;;5055496;28;1712;-67
2021/03/07 07:38:26;;;;;;;;;;;20.90;50.00;;;;;;5055172;28;1949;-68
2021/03/07 07:40:51;;;;;;;;;;;20.90;50.10;;;;;;5044104;28;1585;-69
2021/03/07 07:43:16;;;;;;;;;;;20.90;50.10;;;;;;5052049;28;1324;-69
2021/03/07 07:45:42;;;;;;;;;;;20.90;50.20;;;;;;5055406;28;1654;-68
2021/03/07 07:48:07;;;;;;;;;;;20.80;50.20;;;;;;5054952;28;1711;-68
2021/03/07 07:50:36;;;;;;;;;;;20.80;50.20;;;;;;5070918;28;1376;-69
2021/03/07 07:53:03;;;;;;;;;;;20.80;50.30;;;;;;5070257;28;1648;-68
2021/03/07 07:55:47;;;;;;;;;;;20.80;50.30;;;;;;5055582;28;1621;-70
2021/03/07 07:58:31;;;;;;;;;;;20.80;50.30;;;;;;5051551;28;2070;-70
2021/03/07 08:00:56;;;;;;;;;;;20.80;50.40;;;;;;5066647;28;1302;-73
2021/03/07 08:03:34;;;;;;;;;;;20.80;50.40;;;;;;5065634;28;1528;-72
2021/03/07 08:06:00;;;;;;;;;;;20.70;50.40;;;;;;5052110;28;1705;-72
2021/03/07 08:08:29;;;;;;;;;;;20.70;50.50;;;;;;5053668;28;1663;-72
2021/03/07 08:10:55;;;;;;;;;;;20.70;50.50;;;;;;5053703;28;1694;-71
2021/03/07 08:13:29;;;;;;;;;;;20.70;50.50;;;;;;5055094;28;1168;-70
2021/03/07 08:15:55;;;;;;;;;;;20.70;50.60;;;;;;5054812;28;1722;-70
2021/03/07 08:18:20;;;;;;;;;;;20.60;50.60;;;;;;5053262;28;1902;-71
2021/03/07 08:20:46;;;;;;;;;;;20.60;50.70;;;;;;5053649;28;1723;-70
2021/03/07 08:23:15;;;;;;;;;;;20.60;50.70;;;;;;5054610;28;1672;-70
2021/03/07 08:25:46;;;;;;;;;;;20.60;50.80;;;;;;5054784;28;1357;-71
2021/03/07 08:28:29;;;;;;;;;;;20.60;50.80;;;;;;5054257;28;1581;-70
2021/03/07 08:30:55;;;;;;;;;;;20.50;50.80;;;;;;5054561;28;1546;-71
2021/03/07 08:33:27;;;;;;;;;;;20.50;50.80;;;;;;5053159;28;1854;-70
2021/03/07 08:36:09;;;;;;;;;;;20.50;50.90;;;;;;5053490;28;1635;-68
2021/03/07 08:38:35;;;;;;;;;;;20.50;50.90;;;;;;5054199;28;1906;-68
2021/03/07 08:41:00;;;;;;;;;;;20.50;50.90;;;;;;5058008;28;1687;-67
2021/03/07 08:43:27;;;;;;;;;;;20.50;51.00;;;;;;5051958;28;1430;-67
2021/03/07 08:46:12;;;;;;;;;;;20.40;51.00;;;;;;5054330;28;1366;-69
2021/03/07 08:48:38;;;;;;;;;;;20.50;51.10;;;;;;5052783;28;1595;-69
2021/03/07 08:51:04;;;;;;;;;;;20.40;51.10;;;;;;5054313;28;1366;-68
2021/03/07 08:53:30;;;;;;;;;;;20.40;51.10;;;;;;5053115;28;1661;-69
2021/03/07 08:55:55;;;;;;;;;;;20.40;51.10;;;;;;5052934;28;1756;-69
2021/03/07 08:58:21;;;;;;;;;;;20.40;51.20;;;;;;5052478;28;1959;-70
2021/03/07 09:00:46;;;;;;;;;;;20.40;51.20;;;;;;5052610;28;1584;-69
2021/03/07 09:03:15;;;;;;;;;;;20.40;51.20;;;;;;5054021;28;1366;-70
2021/03/07 09:05:40;;;;;;;;;;;20.40;51.20;;;;;;5052727;28;1718;-69
2021/03/07 09:08:06;;;;;;;;;;;20.30;51.20;;;;;;5053769;28;1008;-69
2021/03/07 09:10:32;;;;;;;;;;;20.30;51.20;;;;;;5052688;28;1654;-70
2021/03/07 09:13:06;;;;;;;;;;;20.30;51.20;;;;;;5036050;28;2241;-68
2021/03/07 09:15:32;;;;;;;;;;;20.30;51.90;;;;;;5053649;28;1687;-68
2021/03/07 09:17:58;;;;;;;;;;;20.30;51.30;;;;;;5052219;28;1890;-70
2021/03/07 09:20:38;;;;;;;;;;;20.30;51.30;;;;;;5053685;28;1585;-69
2021/03/07 09:23:03;;;;;;;;;;;20.30;51.30;;;;;;5052457;28;1392;-67
2021/03/07 09:25:29;;;;;;;;;;;20.30;51.40;;;;;;5052369;28;1594;-67
2021/03/07 09:27:54;;;;;;;;;;;20.20;51.40;;;;;;5053156;28;1399;-70
2021/03/07 09:30:20;;;;;;;;;;;20.20;51.40;;;;;;5052349;28;1520;-70
2021/03/07 09:32:46;;;;;;;;;;;20.20;51.40;;;;;;5052233;28;1590;-70
2021/03/07 09:35:24;;;;;;;;;;;20.20;51.50;;;;;;5068760;28;1534;-69
2021/03/07 09:38:02;;;;;;;;;;;20.20;51.60;;;;;;5068677;28;1505;-70
2021/03/07 09:40:38;;;;;;;;;;;20.20;51.50;;;;;;5048819;28;1501;-69
2021/03/07 09:43:13;;;;;;;;;;;20.20;51.60;;;;;;5047283;28;1797;-69
2021/03/07 09:45:39;;;;;;;;;;;20.20;51.60;;;;;;5053669;28;1597;-69
2021/03/07 09:48:05;;;;;;;;;;;20.10;51.60;;;;;;5051222;28;1357;-69
2021/03/07 09:50:30;;;;;;;;;;;20.10;51.60;;;;;;5050775;28;1259;-68
2021/03/07 09:52:56;;;;;;;;;;;20.10;51.60;;;;;;5049820;28;1448;-68
2021/03/07 09:55:25;;;;;;;;;;;20.10;51.70;;;;;;5035346;28;1643;-69
2021/03/07 09:58:00;;;;;;;;;;;20.10;51.70;;;;;;5050434;28;1707;-68
2021/03/07 10:00:26;;;;;;;;;;;20.10;51.70;;;;;;5043687;28;1535;-69
2021/03/07 10:02:51;;;;;;;;;;;20.10;51.70;;;;;;5056096;28;1676;-68
2021/03/07 10:05:17;;;;;;;;;;;20.10;51.70;;;;;;5037531;28;1468;-68
2021/03/07 10:07:42;;;;;;;;;;;20.10;51.80;;;;;;5044469;28;2184;-70
2021/03/07 10:10:24;;;;;;;;;;;20.10;52.40;;;;;;5066495;28;1394;-69
2021/03/07 10:12:55;;;;;;;;;;;20.10;51.80;;;;;;5045891;28;1664;-69
2021/03/07 10:15:31;;;;;;;;;;;20.10;51.90;;;;;;5061928;28;1672;-68
2021/03/07 10:17:57;;;;;;;;;;;20.00;51.80;;;;;;5066722;28;1894;-69
2021/03/07 10:20:22;;;;;;;;;;;20.00;51.90;;;;;;5067306;28;1634;-68
2021/03/07 10:22:48;;;;;;;;;;;20.00;51.90;;;;;;5051761;28;1279;-68
2021/03/07 10:25:40;;;;;;;;;;;20.00;51.90;;;;;;5061323;28;1346;-68
2021/03/07 10:28:06;;;;;;;;;;;20.00;51.90;;;;;;5049442;28;1657;-69
2021/03/07 10:30:32;;;;;;;;;;;20.00;51.90;;;;;;5051668;28;1544;-68
2021/03/07 10:33:10;;;;;;;;;;;20.00;52.00;;;;;;5050430;28;1334;-68
2021/03/07 10:35:36;;;;;;;;;;;20.00;52.00;;;;;;5054204;28;1323;-68
2021/03/07 10:38:01;;;;;;;;;;;20.00;52.00;;;;;;5049810;28;1906;-68
2021/03/07 10:40:34;;;;;;;;;;;19.90;52.00;;;;;;5060106;28;1277;-68
2021/03/07 10:43:00;;;;;;;;;;;19.90;52.00;;;;;;5061426;28;1591;-68
2021/03/07 10:45:25;;;;;;;;;;;19.90;52.00;;;;;;5050189;28;1436;-69
2021/03/07 10:47:58;;;;;;;;;;;19.90;52.10;;;;;;5051275;28;1572;-69
2021/03/07 10:50:23;;;;;;;;;;;19.90;52.10;;;;;;5051592;28;1610;-68
2021/03/07 10:52:48;;;;;;;;;;;19.90;52.10;;;;;;5051284;28;1324;-68
2021/03/07 10:55:15;;;;;;;;;;;19.90;52.10;;;;;;5051397;28;1297;-69
2021/03/07 10:57:41;;;;;;;;;;;19.90;52.10;;;;;;5066416;28;1509;-68
2021/03/07 11:00:07;;;;;;;;;;;19.90;52.10;;;;;;5051498;28;1902;-69
2021/03/07 11:02:32;;;;;;;;;;;19.90;52.10;;;;;;5046599;28;1650;-68
2021/03/07 11:04:58;;;;;;;;;;;19.90;52.20;;;;;;5052713;28;1657;-66
2021/03/07 11:07:23;;;;;;;;;;;19.90;52.20;;;;;;5044326;28;1718;-67
2021/03/07 11:09:48;;;;;;;;;;;19.90;52.40;;;;;;5047683;28;1353;-66
2021/03/07 11:12:14;;;;;;;;;;;19.90;52.20;;;;;;5048784;28;1648;-66
2021/03/07 11:14:39;;;;;;;;;;;19.80;52.20;;;;;;5048318;28;1366;-66
2021/03/07 11:17:05;;;;;;;;;;;19.90;52.20;;;;;;5051721;28;1468;-67
2021/03/07 11:19:30;;;;;;;;;;;19.80;52.20;;;;;;5053559;28;1898;-66
2021/03/07 11:21:55;;;;;;;;;;;19.80;52.20;;;;;;5052924;28;1642;-67
2021/03/07 11:24:21;;;;;;;;;;;19.90;52.20;;;;;;5053332;28;1352;-66
2021/03/07 11:26:46;;;;;;;;;;;19.80;52.20;;;;;;5053463;28;1802;-66
2021/03/07 11:29:12;;;;;;;;;;;19.80;52.20;;;;;;5050679;28;1326;-67
2021/03/07 11:31:37;;;;;;;;;;;19.80;52.80;;;;;;5053493;28;1585;-66
2021/03/07 11:34:03;;;;;;;;;;;19.90;52.20;;;;;;5053391;28;1228;-66
2021/03/07 11:36:28;;;;;;;;;;;19.80;52.20;;;;;;5052452;28;1342;-66
2021/03/07 11:38:54;;;;;;;;;;;19.80;52.20;;;;;;5067891;28;1981;-66
2021/03/07 11:41:19;;;;;;;;;;;19.80;52.20;;;;;;5052758;28;1478;-66
2021/03/07 11:43:44;;;;;;;;;;;19.80;52.20;;;;;;5053048;28;1529;-66
2021/03/07 11:46:10;;;;;;;;;;;19.80;52.20;;;;;;5053248;28;1530;-66
2021/03/07 11:48:35;;;;;;;;;;;19.80;52.30;;;;;;5053536;28;1577;-68
2021/03/07 11:51:01;;;;;;;;;;;19.80;52.30;;;;;;5054328;28;1436;-69
2021/03/07 11:53:26;;;;;;;;;;;19.80;52.30;;;;;;5054352;28;1377;-68
2021/03/07 11:55:52;;;;;;;;;;;19.80;52.30;;;;;;5052648;28;1603;-68
2021/03/07 11:58:17;;;;;;;;;;;19.80;52.30;;;;;;5053868;28;1914;-68
2021/03/07 12:00:42;;;;;;;;;;;19.80;52.30;;;;;;5054118;28;1650;-68
2021/03/07 12:03:08;;;;;;;;;;;19.80;52.30;;;;;;5046984;28;1481;-68
2021/03/07 12:05:33;;;;;;;;;;;19.80;52.30;;;;;;5069332;28;1559;-68
2021/03/07 12:07:59;;;;;;;;;;;19.80;52.30;;;;;;5047637;28;1235;-69
2021/03/07 12:10:26;;;;;;;;;;;19.80;52.30;;;;;;5043614;28;1207;-67
2021/03/07 12:12:51;;;;;;;;;;;19.80;52.30;;;;;;5041292;28;1129;-69
2021/03/07 12:15:17;;;;;;;;;;;19.80;52.30;;;;;;5026278;28;1330;-70
2021/03/07 12:17:42;;;;;;;;;;;19.80;52.30;;;;;;5043859;28;1258;-69
2021/03/07 12:20:08;;;;;;;;;;;19.80;52.30;;;;;;5056290;28;1870;-70
2021/03/07 12:22:34;;;;;;;;;;;19.80;52.30;;;;;;5059465;28;1302;-70
2021/03/07 12:24:59;;;;;;;;;;;19.80;52.30;;;;;;5054836;28;1299;-70
2021/03/07 12:27:25;;;;;;;;;;;19.80;52.30;;;;;;5053394;28;1249;-70
2021/03/07 12:29:50;;;;;;;;;;;19.80;52.30;;;;;;5053500;28;1315;-70
2021/03/07 12:32:17;;;;;;;;;;;19.80;52.30;;;;;;5052422;28;1324;-70
2021/03/07 12:34:42;;;;;;;;;;;19.80;52.30;;;;;;5052486;28;1762;-70
2021/03/07 12:37:08;;;;;;;;;;;19.70;52.30;;;;;;5050632;28;1525;-70
2021/03/07 12:39:33;;;;;;;;;;;19.70;52.30;;;;;;5051859;28;1906;-70
2021/03/07 12:41:59;;;;;;;;;;;19.70;52.30;;;;;;5040606;28;1140;-70
2021/03/07 12:44:24;;;;;;;;;;;19.70;52.30;;;;;;5043092;28;1148;-70
2021/03/07 12:46:49;;;;;;;;;;;19.70;52.30;;;;;;5060481;28;1257;-70
2021/03/07 12:49:15;;;;;;;;;;;19.70;52.40;;;;;;5041998;28;1216;-70
2021/03/07 12:51:40;;;;;;;;;;;19.70;52.40;;;;;;5045258;28;1211;-71
2021/03/07 12:54:06;;;;;;;;;;;19.70;52.40;;;;;;5041264;28;1247;-70
2021/03/07 12:56:34;;;;;;;;;;;19.60;52.40;;;;;;5052539;28;1330;-69
2021/03/07 12:58:59;;;;;;;;;;;19.70;52.40;;;;;;5067676;28;1968;-69
2021/03/07 13:01:25;;;;;;;;;;;19.70;52.40;;;;;;5063443;28;1301;-70
2021/03/07 13:03:50;;;;;;;;;;;19.70;52.40;;;;;;5052690;28;1274;-69
2021/03/07 13:06:15;;;;;;;;;;;19.70;52.30;;;;;;5052711;28;1475;-70
2021/03/07 13:08:41;;;;;;;;;;;19.80;52.20;;;;;;5050767;28;1196;-70
2021/03/07 13:11:07;;;;;;;;;;;19.80;52.10;;;;;;5046334;28;1331;-70
2021/03/07 13:13:32;;;;;;;;;;;19.90;52.00;;;;;;5051591;28;1261;-70
2021/03/07 13:15:58;;;;;;;;;;;20.00;51.90;;;;;;5050429;28;1788;-70
2021/03/07 13:18:23;;;;;;;;;;;20.10;51.70;;;;;;5043804;28;1890;-69
2021/03/07 13:20:49;;;;;;;;;;;20.20;51.50;;;;;;5050781;28;1438;-70
2021/03/07 13:23:18;;;;;;;;;;;20.30;51.30;;;;;;5049923;28;1932;-70
2021/03/07 13:25:44;;;;;;;;;;;20.40;51.20;;;;;;5047615;28;1263;-70
2021/03/07 13:28:10;;;;;;;;;;;20.50;50.90;;;;;;5040147;28;1075;-69
2021/03/07 13:30:36;;;;;;;;;;;20.50;50.80;;;;;;5051634;28;1365;-69
2021/03/07 13:33:02;;;;;;;;;;;20.60;50.50;;;;;;5050959;28;1275;-68
2021/03/07 13:35:27;;;;;;;;;;;20.70;50.40;;;;;;5043298;28;1741;-69
2021/03/07 13:37:53;;;;;;;;;;;20.70;50.30;;;;;;5046277;28;1088;-69
2021/03/07 13:40:18;;;;;;;;;;;20.80;50.20;;;;;;5039126;28;1914;-68
2021/03/07 13:42:43;;;;;;;;;;;20.80;50.10;;;;;;5052209;28;1282;-67
2021/03/07 13:45:10;;;;;;;;;;;20.90;50.00;;;;;;5051825;28;1318;-69
2021/03/07 13:47:35;;;;;;;;;;;20.90;49.90;;;;;;5051835;28;1287;-68
2021/03/07 13:50:01;;;;;;;;;;;20.90;49.80;;;;;;5051752;28;1360;-68
2021/03/07 13:52:27;;;;;;;;;;;21.00;49.80;;;;;;5067257;28;996;-68
2021/03/07 13:54:52;;;;;;;;;;;21.00;49.70;;;;;;5050478;28;1505;-67
2021/03/07 13:57:18;;;;;;;;;;;21.00;49.70;;;;;;5051647;28;1260;-67
2021/03/07 13:59:43;;;;;;;;;;;21.10;49.70;;;;;;5051721;28;1906;-67
2021/03/07 14:02:09;;;;;;;;;;;21.10;49.70;;;;;;5044939;28;1250;-68
2021/03/07 14:04:34;;;;;;;;;;;21.10;49.60;;;;;;5050586;28;1264;-68
2021/03/07 14:06:59;;;;;;;;;;;21.10;49.50;;;;;;5051378;28;1255;-68
2021/03/07 14:09:25;;;;;;;;;;;21.20;49.50;;;;;;5037696;28;1396;-69
2021/03/07 14:11:50;;;;;;;;;;;21.20;49.50;;;;;;5049836;28;1335;-67
2021/03/07 14:14:16;;;;;;;;;;;21.20;49.50;;;;;;5051466;28;1309;-68
2021/03/07 14:16:41;;;;;;;;;;;21.20;49.40;;;;;;5041577;28;1303;-67
2021/03/07 14:19:07;;;;;;;;;;;21.20;49.40;;;;;;5040257;28;1894;-68
2021/03/07 14:21:32;;;;;;;;;;;21.20;49.40;;;;;;5050834;28;1239;-67
2021/03/07 14:23:57;;;;;;;;;;;21.20;49.40;;;;;;5051115;28;1279;-68
2021/03/07 14:26:23;;;;;;;;;;;21.20;49.40;;;;;;5051626;28;1279;-68
2021/03/07 14:28:48;;;;;;;;;;;21.30;49.40;;;;;;5051178;28;1262;-68